Albany, New York
Traffic Map
Current Weather Conditions
Albany, New York
Broken Clouds
Broken Clouds
30°
Feels Like: 22°
Wind Chill: 22° Ceiling: 4100
Heat Index: 30° Visibility: 10mi
Dew Point: 20° Wind: 8mph
Humidity: 66% Direction: 300° (WNW)
Pressure: 30.1in Gusts: 0mph
Raw Report DataKALB 100951Z 30007KT 10SM BKN041 M01/M07 A3010 RMK AO2 SLP197 T10111067
Traffic Incident Summary
Active as of:
Severity:
Category:
InformationThere was an issue retrieving the traffic information for this location. Please try a different location or try again shortly.
Advertisements